createdAt,value
2017-10-25T00:00:52.323Z,3.40
2017-10-25T00:03:20.961Z,3.57
2017-10-25T00:05:48.434Z,3.70
2017-10-25T00:08:15.917Z,3.00
2017-10-25T00:10:43.406Z,3.23
2017-10-25T00:13:10.877Z,2.97
2017-10-25T00:15:38.564Z,3.87
2017-10-25T00:18:06.098Z,3.40
2017-10-25T00:20:33.592Z,3.00
2017-10-25T00:23:01.222Z,3.13
2017-10-25T00:25:28.742Z,2.87
2017-10-25T00:27:57.059Z,2.97
2017-10-25T00:30:24.804Z,3.20
2017-10-25T00:32:53.238Z,2.63
2017-10-25T00:35:20.729Z,3.70
2017-10-25T00:37:48.979Z,3.27
2017-10-25T00:40:16.605Z,2.93
2017-10-25T00:42:45.292Z,3.10
2017-10-25T00:45:12.781Z,3.03
2017-10-25T00:47:40.262Z,2.70
2017-10-25T00:50:08.502Z,2.40
2017-10-25T00:52:36.060Z,2.73
2017-10-25T00:55:03.634Z,2.80
2017-10-25T00:57:31.235Z,2.67
2017-10-25T00:59:59.714Z,3.00
2017-10-25T01:02:28.032Z,2.77
2017-10-25T01:04:55.720Z,2.93
2017-10-25T01:07:23.353Z,3.17
2017-10-25T01:09:50.895Z,2.93
2017-10-25T01:12:19.294Z,2.60
2017-10-25T01:14:46.828Z,3.07
2017-10-25T01:17:15.079Z,2.93
2017-10-25T01:19:42.568Z,2.90
2017-10-25T01:22:10.821Z,2.23
2017-10-25T01:24:38.311Z,2.70
2017-10-25T01:27:05.805Z,2.93
2017-10-25T01:29:33.278Z,2.50
2017-10-25T01:32:00.753Z,3.00
2017-10-25T01:34:28.230Z,3.10
2017-10-25T01:36:56.466Z,2.30
2017-10-25T01:39:23.940Z,2.90
2017-10-25T01:41:51.415Z,3.00
2017-10-25T01:44:19.658Z,2.50
2017-10-25T01:46:47.135Z,3.07
2017-10-25T01:49:14.631Z,2.80
2017-10-25T01:51:42.890Z,3.47
2017-10-25T01:54:11.134Z,3.20
2017-10-25T01:56:38.622Z,2.00
2017-10-25T01:59:06.882Z,2.30
2017-10-25T02:01:34.370Z,2.50
2017-10-25T02:04:02.620Z,2.90
2017-10-25T02:06:30.108Z,2.50
2017-10-25T02:08:58.350Z,2.30
2017-10-25T02:11:25.826Z,2.70
2017-10-25T02:13:53.311Z,2.70
2017-10-25T02:16:20.800Z,2.60
2017-10-25T02:18:48.280Z,2.40
2017-10-25T02:21:15.774Z,2.77
2017-10-25T02:23:44.023Z,2.43
2017-10-25T02:26:11.519Z,2.80
2017-10-25T02:28:39.767Z,2.97
2017-10-25T02:31:07.242Z,2.57
2017-10-25T02:33:35.480Z,2.70
2017-10-25T02:36:02.961Z,2.00
2017-10-25T02:38:31.210Z,3.23
2017-10-25T02:40:58.690Z,2.70
2017-10-25T02:43:26.952Z,2.70
2017-10-25T02:45:54.439Z,2.70
2017-10-25T02:48:22.705Z,2.43
2017-10-25T02:50:50.942Z,2.50
2017-10-25T02:53:18.435Z,2.90
2017-10-25T02:55:45.920Z,2.20
2017-10-25T02:58:14.170Z,2.57
2017-10-25T03:00:41.649Z,3.60
2017-10-25T03:03:09.893Z,2.80
2017-10-25T03:05:37.361Z,2.37
2017-10-25T03:08:04.844Z,2.80
2017-10-25T03:10:33.082Z,2.70
2017-10-25T03:13:00.566Z,2.93
2017-10-25T03:15:28.068Z,2.40
2017-10-25T03:17:55.551Z,2.90
2017-10-25T03:20:23.035Z,3.20
2017-10-25T03:22:50.517Z,2.60
2017-10-25T03:25:18.777Z,2.50
2017-10-25T03:27:46.270Z,2.73
2017-10-25T03:30:14.623Z,2.80
2017-10-25T03:32:42.102Z,2.53
2017-10-25T03:35:10.351Z,2.90
2017-10-25T03:37:37.831Z,2.43
2017-10-25T03:40:06.074Z,2.67
2017-10-25T03:42:33.567Z,2.40
2017-10-25T03:45:01.808Z,2.57
2017-10-25T03:47:29.279Z,2.80
2017-10-25T03:49:56.758Z,2.40
2017-10-25T03:52:25.002Z,2.10
2017-10-25T03:54:52.466Z,2.77
2017-10-25T03:57:19.946Z,2.80
2017-10-25T03:59:47.428Z,3.10
2017-10-25T04:02:14.910Z,2.90
2017-10-25T04:04:42.395Z,3.00
2017-10-25T04:07:09.877Z,2.63
2017-10-25T04:09:37.345Z,2.53
2017-10-25T04:12:05.596Z,2.80
2017-10-25T04:14:33.075Z,3.40
2017-10-25T04:17:00.552Z,2.40
2017-10-25T04:19:28.033Z,2.77
2017-10-25T04:21:55.528Z,2.63
2017-10-25T04:24:23.006Z,3.30
2017-10-25T04:26:50.486Z,3.60
2017-10-25T04:29:18.738Z,3.30
2017-10-25T04:31:46.212Z,3.27
2017-10-25T04:34:14.468Z,2.80
2017-10-25T04:36:41.948Z,3.20
2017-10-25T04:39:10.197Z,2.50
2017-10-25T04:41:37.666Z,3.10
2017-10-25T04:44:05.154Z,2.73
2017-10-25T04:46:33.403Z,5.87
2017-10-25T04:49:00.879Z,2.90
2017-10-25T04:51:29.140Z,2.53
2017-10-25T04:53:56.623Z,2.23
2017-10-25T04:56:24.870Z,2.67
2017-10-25T04:58:53.105Z,2.73
2017-10-25T05:01:20.594Z,8.63
2017-10-25T05:03:48.075Z,3.87
2017-10-25T05:06:15.546Z,3.10
2017-10-25T05:08:43.799Z,3.00
2017-10-25T05:11:11.448Z,2.80
2017-10-25T05:13:38.941Z,2.80
2017-10-25T05:16:07.192Z,2.60
2017-10-25T05:18:34.676Z,2.90
2017-10-25T05:21:02.926Z,2.40
2017-10-25T05:23:30.409Z,2.77
2017-10-25T05:25:58.658Z,2.60
2017-10-25T05:28:26.150Z,2.20
2017-10-25T05:30:54.403Z,3.27
2017-10-25T05:33:21.882Z,3.30
2017-10-25T05:35:50.130Z,2.77
2017-10-25T05:38:17.610Z,3.10
2017-10-25T05:40:45.859Z,3.50
2017-10-25T05:43:13.330Z,3.30
2017-10-25T05:45:40.805Z,3.17
2017-10-25T05:48:09.066Z,2.60
2017-10-25T05:50:36.555Z,3.03
2017-10-25T05:53:04.807Z,4.00
2017-10-25T05:55:33.064Z,2.93
2017-10-25T05:58:00.575Z,3.23
2017-10-25T06:00:28.817Z,3.47
2017-10-25T06:02:57.072Z,2.77
2017-10-25T06:05:24.586Z,3.47
2017-10-25T06:07:52.835Z,3.00
2017-10-25T06:10:20.319Z,2.57
2017-10-25T06:12:48.588Z,2.70
2017-10-25T06:15:16.847Z,3.40
2017-10-25T06:17:44.326Z,3.30
2017-10-25T06:20:12.562Z,3.73
2017-10-25T06:22:40.052Z,3.53
2017-10-25T06:25:08.308Z,3.53
2017-10-25T06:27:35.796Z,2.73
2017-10-25T06:30:04.044Z,3.23
2017-10-25T06:32:31.530Z,5.10
2017-10-25T06:34:59.793Z,3.10
2017-10-25T06:37:27.284Z,3.03
2017-10-25T06:39:54.762Z,3.83
2017-10-25T06:42:22.253Z,3.57
2017-10-25T06:44:49.739Z,3.43
2017-10-25T06:47:17.996Z,3.80
2017-10-25T06:49:45.478Z,3.37
2017-10-25T06:52:13.721Z,3.87
2017-10-25T06:54:41.212Z,3.40
2017-10-25T06:57:09.468Z,2.80
2017-10-25T06:59:36.958Z,2.83
2017-10-25T07:02:05.202Z,8.20
2017-10-25T07:04:32.674Z,3.57
2017-10-25T07:07:00.155Z,3.70
2017-10-25T07:09:28.413Z,3.57
2017-10-25T07:11:56.676Z,3.83
2017-10-25T07:14:24.167Z,3.10
2017-10-25T07:16:52.412Z,3.07
2017-10-25T07:19:19.900Z,2.83
2017-10-25T07:21:48.151Z,3.37
2017-10-25T07:24:15.639Z,3.07
2017-10-25T07:26:43.885Z,2.60
2017-10-25T07:29:11.371Z,3.10
2017-10-25T07:31:39.619Z,2.90
2017-10-25T07:34:07.100Z,3.10
2017-10-25T07:36:35.352Z,3.00
2017-10-25T07:39:04.355Z,3.13
2017-10-25T07:41:31.832Z,3.20
2017-10-25T07:44:00.102Z,2.70
2017-10-25T07:46:28.344Z,3.20
2017-10-25T07:48:55.835Z,3.50
2017-10-25T07:51:24.085Z,2.53
2017-10-25T07:53:51.575Z,2.80
2017-10-25T07:56:19.838Z,4.53
2017-10-25T07:58:47.326Z,3.60
2017-10-25T08:01:15.572Z,2.70
2017-10-25T08:03:43.871Z,3.40
2017-10-25T08:06:12.118Z,2.47
2017-10-25T08:08:39.597Z,3.13
2017-10-25T08:11:07.854Z,2.37
2017-10-25T08:13:35.343Z,2.87
2017-10-25T08:16:03.648Z,2.77
2017-10-25T08:18:31.130Z,2.33
2017-10-25T08:20:58.616Z,3.00
2017-10-25T08:23:26.113Z,3.30
2017-10-25T08:25:53.601Z,3.60
2017-10-25T08:28:21.142Z,3.43
2017-10-25T08:30:48.627Z,3.37
2017-10-25T08:33:16.125Z,3.20
2017-10-25T08:35:44.416Z,3.37
2017-10-25T08:38:11.870Z,3.60
2017-10-25T08:40:40.115Z,2.50
2017-10-25T08:43:07.619Z,3.50
2017-10-25T08:45:35.114Z,3.20
2017-10-25T08:48:02.600Z,3.63
2017-10-25T08:50:30.087Z,3.23
2017-10-25T08:52:58.334Z,3.57
2017-10-25T08:55:25.814Z,3.67
2017-10-25T08:57:54.069Z,3.37
2017-10-25T09:00:21.542Z,3.90
2017-10-25T09:02:49.043Z,4.63
2017-10-25T09:05:16.550Z,4.47
2017-10-25T09:07:44.076Z,4.67
2017-10-25T09:10:11.583Z,5.23
2017-10-25T09:12:39.851Z,7.30
2017-10-25T09:15:07.353Z,4.33
2017-10-25T09:17:34.847Z,8.13
2017-10-25T09:20:02.323Z,4.70
2017-10-25T09:22:30.699Z,6.57
2017-10-25T09:24:58.186Z,15.13
2017-10-25T09:27:26.430Z,8.77
2017-10-25T09:29:53.909Z,9.43
2017-10-25T09:32:21.389Z,6.80
2017-10-25T09:34:49.629Z,6.07
2017-10-25T09:37:17.118Z,7.20
2017-10-25T09:39:45.380Z,10.20
2017-10-25T09:42:12.872Z,7.53
2017-10-25T09:44:40.375Z,8.63
2017-10-25T09:47:07.858Z,10.07
2017-10-25T09:49:36.239Z,11.73
2017-10-25T09:52:04.511Z,9.57
2017-10-25T09:54:32.771Z,10.90
2017-10-25T09:57:00.260Z,9.93
2017-10-25T09:59:28.533Z,9.37
2017-10-25T10:01:56.776Z,11.23
2017-10-25T10:04:24.260Z,11.57
2017-10-25T10:06:51.746Z,9.63
2017-10-25T10:09:19.221Z,10.13
2017-10-25T10:11:46.706Z,9.87
2017-10-25T10:14:14.194Z,9.53
2017-10-25T10:16:41.687Z,11.10
2017-10-25T10:19:09.172Z,9.77
2017-10-25T10:21:36.677Z,9.67
2017-10-25T10:24:04.940Z,9.30
2017-10-25T10:26:32.432Z,10.13
2017-10-25T10:28:59.914Z,8.97
2017-10-25T10:31:27.399Z,8.20
2017-10-25T10:33:54.892Z,9.40
2017-10-25T10:36:23.148Z,9.60
2017-10-25T10:38:50.675Z,9.13
2017-10-25T10:41:18.163Z,7.40
2017-10-25T10:43:45.651Z,7.50
2017-10-25T10:46:13.907Z,8.30
2017-10-25T10:48:41.398Z,8.30
2017-10-25T10:51:09.644Z,9.27
2017-10-25T10:53:37.126Z,7.40
2017-10-25T10:56:05.393Z,7.53
2017-10-25T10:58:33.651Z,7.30
2017-10-25T11:01:01.164Z,7.73
2017-10-25T11:03:28.650Z,7.30
2017-10-25T11:05:56.192Z,6.07
2017-10-25T11:08:23.687Z,7.83
2017-10-25T11:10:51.179Z,7.30
2017-10-25T11:13:18.693Z,6.50
2017-10-25T11:15:46.186Z,6.17
2017-10-25T11:18:14.443Z,5.50
2017-10-25T11:20:41.931Z,6.17
2017-10-25T11:23:10.213Z,6.93
2017-10-25T11:25:38.470Z,7.00
2017-10-25T11:28:05.970Z,4.97
2017-10-25T11:30:33.502Z,5.93
2017-10-25T11:33:01.007Z,5.50
2017-10-25T11:35:28.484Z,5.63
2017-10-25T11:38:02.891Z,4.83
2017-10-25T11:40:30.356Z,5.50
2017-10-25T11:42:57.856Z,4.20
2017-10-25T11:45:26.114Z,3.93
2017-10-25T11:47:53.596Z,4.17
2017-10-25T11:50:21.833Z,4.10
2017-10-25T11:52:49.327Z,3.10
2017-10-25T11:55:17.575Z,4.60
2017-10-25T11:57:45.096Z,4.07
2017-10-25T12:00:12.583Z,4.40
2017-10-25T12:02:40.069Z,3.30
2017-10-25T12:05:08.336Z,3.93
2017-10-25T12:07:37.323Z,3.10
2017-10-25T12:10:04.799Z,3.90
2017-10-25T12:12:32.286Z,3.40
2017-10-25T12:14:59.780Z,2.97
2017-10-25T12:17:27.257Z,2.90
2017-10-25T12:19:54.738Z,2.40
2017-10-25T12:22:22.221Z,2.33
2017-10-25T12:24:50.470Z,2.53
2017-10-25T12:27:17.940Z,2.30
2017-10-25T12:29:46.191Z,2.60
2017-10-25T12:32:14.139Z,2.60
2017-10-25T12:34:41.630Z,2.40
2017-10-25T12:37:09.132Z,2.43
2017-10-25T12:39:36.627Z,2.57
2017-10-25T12:42:04.160Z,2.73
2017-10-25T12:44:31.647Z,2.50
2017-10-25T12:46:59.134Z,3.70
2017-10-25T12:49:26.615Z,2.40
2017-10-25T12:51:54.890Z,2.43
2017-10-25T12:54:23.157Z,2.43
2017-10-25T12:56:51.391Z,2.00
2017-10-25T12:59:18.873Z,3.23
2017-10-25T13:01:46.368Z,2.80
2017-10-25T13:04:13.852Z,2.90
2017-10-25T13:06:41.331Z,2.60
2017-10-25T13:09:08.801Z,2.63
2017-10-25T13:11:59.570Z,2.57
2017-10-25T13:14:44.135Z,3.00
2017-10-25T13:17:23.649Z,3.03
2017-10-25T13:19:51.140Z,3.17
2017-10-25T13:22:18.634Z,360.37
2017-10-25T13:24:46.137Z,159.00
2017-10-25T13:27:13.664Z,54.20
2017-10-25T13:29:41.919Z,48.63
2017-10-25T13:32:09.417Z,31.73
2017-10-25T13:34:37.669Z,89.40
2017-10-25T13:37:05.147Z,60.73
2017-10-25T13:39:33.402Z,97.00
2017-10-25T13:42:00.886Z,24.57
2017-10-25T13:44:28.376Z,38.23
2017-10-25T13:46:55.861Z,42.73
2017-10-25T13:49:23.353Z,36.83
2017-10-25T13:51:51.600Z,6.83
2017-10-25T13:54:19.092Z,24.13
2017-10-25T13:56:47.351Z,20.00
2017-10-25T13:59:14.838Z,32.07
2017-10-25T14:01:42.330Z,8.47
2017-10-25T14:04:09.813Z,20.60
2017-10-25T14:06:37.304Z,15.23
2017-10-25T14:09:05.563Z,24.17
2017-10-25T14:11:33.050Z,22.93
2017-10-25T14:14:00.543Z,18.03
2017-10-25T14:16:28.034Z,13.10
2017-10-25T14:18:55.530Z,21.00
2017-10-25T14:21:23.027Z,20.10
2017-10-25T14:23:50.518Z,21.27
2017-10-25T14:26:29.980Z,25.80
2017-10-25T14:28:58.243Z,15.00
2017-10-25T14:31:26.499Z,6.93
2017-10-25T14:33:53.999Z,18.83
2017-10-25T14:36:22.274Z,16.00
2017-10-25T14:38:50.522Z,12.00
2017-10-25T14:41:18.009Z,12.80
2017-10-25T14:43:46.253Z,12.20
2017-10-25T14:46:13.739Z,6.43
2017-10-25T14:48:41.991Z,16.30
2017-10-25T14:51:09.495Z,10.23
2017-10-25T14:53:36.978Z,18.80
2017-10-25T14:56:04.470Z,12.40
2017-10-25T14:58:31.963Z,18.70
2017-10-25T15:00:59.447Z,8.23
2017-10-25T15:03:26.943Z,14.50
2017-10-25T15:05:54.436Z,14.43
2017-10-25T15:08:22.681Z,12.70
2017-10-25T15:10:50.172Z,7.50
2017-10-25T15:13:18.413Z,5.17
2017-10-25T15:15:45.894Z,11.33
2017-10-25T15:18:14.143Z,7.80
2017-10-25T15:20:41.626Z,8.43
2017-10-25T15:23:09.898Z,7.67
2017-10-25T15:25:38.149Z,6.00
2017-10-25T15:28:06.401Z,8.30
2017-10-25T15:30:33.881Z,10.27
2017-10-25T15:33:01.372Z,9.03
2017-10-25T15:35:29.621Z,10.17
2017-10-25T15:37:57.126Z,10.63
2017-10-25T15:40:25.388Z,6.83
2017-10-25T15:42:53.646Z,11.20
2017-10-25T15:45:21.142Z,181.70
2017-10-25T15:47:48.635Z,20.37
2017-10-25T15:50:16.123Z,94.43
2017-10-25T15:52:43.607Z,17.60
2017-10-25T15:55:11.865Z,45.90
2017-10-25T15:57:39.361Z,73.10
2017-10-25T16:00:06.938Z,32.83
2017-10-25T16:02:34.431Z,52.97
2017-10-25T16:05:01.926Z,175.30
2017-10-25T16:07:30.176Z,64.83
2017-10-25T16:09:57.674Z,206.33
2017-10-25T16:12:25.166Z,44.40
2017-10-25T16:14:53.223Z,137.50
2017-10-25T16:17:21.458Z,19.73
2017-10-25T16:19:50.341Z,80.20
2017-10-25T16:22:17.826Z,88.63
2017-10-25T16:24:47.367Z,70.90
2017-10-25T16:27:15.371Z,65.97
2017-10-25T16:29:43.061Z,26.80
2017-10-25T16:32:17.560Z,7.47
2017-10-25T16:34:46.358Z,30.87
2017-10-25T16:37:13.864Z,227.37
2017-10-25T16:39:41.354Z,28.53
2017-10-25T16:42:08.847Z,158.60
2017-10-25T16:44:37.104Z,38.20
2017-10-25T16:47:04.592Z,51.30
2017-10-25T16:49:32.873Z,107.27
2017-10-25T16:52:01.133Z,98.73
2017-10-25T16:54:29.390Z,95.93
2017-10-25T16:56:56.879Z,54.37
2017-10-25T16:59:25.162Z,573.07
2017-10-25T17:01:53.423Z,423.17
2017-10-25T17:04:21.699Z,515.70
2017-10-25T17:06:49.991Z,313.43
2017-10-25T17:09:18.256Z,249.10
2017-10-25T17:11:46.526Z,150.07
2017-10-25T17:14:14.006Z,19.73
2017-10-25T17:16:42.270Z,7.50
2017-10-25T17:19:10.531Z,10.03
2017-10-25T17:21:38.033Z,6.60
2017-10-25T17:24:05.531Z,10.83
2017-10-25T17:26:33.005Z,5.20
2017-10-25T17:29:00.488Z,4.90
2017-10-25T17:31:28.741Z,7.83
2017-10-25T17:33:56.242Z,7.00
2017-10-25T17:36:24.490Z,7.90
2017-10-25T17:38:51.998Z,5.80
2017-10-25T17:41:19.489Z,6.57
2017-10-25T17:43:46.979Z,8.83
2017-10-25T17:46:15.226Z,5.67
2017-10-25T17:48:42.715Z,5.73
2017-10-25T17:51:10.965Z,8.37
2017-10-25T17:53:38.486Z,8.17
2017-10-25T17:56:05.984Z,9.77
2017-10-25T17:58:33.500Z,5.63
2017-10-25T18:01:00.987Z,5.97
2017-10-25T18:03:28.478Z,5.40
2017-10-25T18:05:55.950Z,5.83
2017-10-25T18:08:24.203Z,6.23
2017-10-25T18:10:51.691Z,6.53
2017-10-25T18:13:19.940Z,8.47
2017-10-25T18:15:47.422Z,12.37
2017-10-25T18:18:15.686Z,12.23
2017-10-25T18:20:43.936Z,8.50
2017-10-25T18:23:11.426Z,6.47
2017-10-25T18:25:39.676Z,6.10
2017-10-25T18:28:07.181Z,18.60
2017-10-25T18:30:34.674Z,17.07
2017-10-25T18:33:02.156Z,8.93
2017-10-25T18:35:29.642Z,10.03
2017-10-25T18:37:57.889Z,6.30
2017-10-25T18:40:25.374Z,14.40
2017-10-25T18:42:53.621Z,18.37
2017-10-25T18:45:21.115Z,6.83
2017-10-25T18:47:49.372Z,5.70
2017-10-25T18:50:16.854Z,5.50
2017-10-25T18:52:45.113Z,14.93
2017-10-25T18:55:13.388Z,25.43
2017-10-25T18:57:40.888Z,4.63
2017-10-25T19:00:08.362Z,4.73
2017-10-25T19:02:35.842Z,4.70
2017-10-25T19:05:03.318Z,5.43
2017-10-25T19:07:31.552Z,6.73
2017-10-25T19:09:59.034Z,6.33
2017-10-25T19:12:26.511Z,5.47
2017-10-25T19:14:53.992Z,6.03
2017-10-25T19:17:22.235Z,4.60
2017-10-25T19:19:49.711Z,4.00
2017-10-25T19:22:17.969Z,4.43
2017-10-25T19:24:45.458Z,6.17
2017-10-25T19:27:13.711Z,4.53
2017-10-25T19:29:41.230Z,6.43
2017-10-25T19:32:08.714Z,12.13
2017-10-25T19:34:36.189Z,4.40
2017-10-25T19:37:03.672Z,6.20
2017-10-25T19:39:31.916Z,5.10
2017-10-25T19:41:59.398Z,4.50
2017-10-25T19:44:28.390Z,4.93
2017-10-25T19:46:55.872Z,9.03
2017-10-25T19:49:24.107Z,5.70
2017-10-25T19:51:51.589Z,5.10
2017-10-25T19:54:19.065Z,6.00
2017-10-25T19:56:47.327Z,7.20
2017-10-25T19:59:15.576Z,5.63
2017-10-25T20:01:43.057Z,4.80
2017-10-25T20:04:10.567Z,4.80
2017-10-25T20:06:38.041Z,4.03
2017-10-25T20:09:05.515Z,4.40
2017-10-25T20:11:33.002Z,5.40
2017-10-25T20:14:01.252Z,4.83
2017-10-25T20:16:28.734Z,4.40
2017-10-25T20:18:56.984Z,4.80
2017-10-25T20:21:24.468Z,3.83
2017-10-25T20:23:52.705Z,4.60
2017-10-25T20:26:20.195Z,5.10
2017-10-25T20:28:47.678Z,4.40
2017-10-25T20:31:15.953Z,4.83
2017-10-25T20:33:44.201Z,3.80
2017-10-25T20:36:11.696Z,5.50
2017-10-25T20:38:39.946Z,11.83
2017-10-25T20:41:07.431Z,5.30
2017-10-25T20:43:34.927Z,5.10
2017-10-25T20:46:02.414Z,6.43
2017-10-25T20:48:29.898Z,4.60
2017-10-25T20:50:58.163Z,5.23
2017-10-25T20:53:25.648Z,6.57
2017-10-25T20:55:53.135Z,9.70
2017-10-25T20:58:20.629Z,5.70
2017-10-25T21:00:48.113Z,6.30
2017-10-25T21:03:16.370Z,24.60
2017-10-25T21:05:44.632Z,7.93
2017-10-25T21:08:12.258Z,8.53
2017-10-25T21:10:39.743Z,8.60
2017-10-25T21:13:07.235Z,14.10
2017-10-25T21:15:35.491Z,14.07
2017-10-25T21:18:02.975Z,12.83
2017-10-25T21:20:31.222Z,6.00
2017-10-25T21:22:58.723Z,5.80
2017-10-25T21:25:26.975Z,4.57
2017-10-25T21:27:54.462Z,4.27
2017-10-25T21:30:22.712Z,5.43
2017-10-25T21:32:50.202Z,23.90
2017-10-25T21:35:17.694Z,5.43
2017-10-25T21:37:45.179Z,7.20
2017-10-25T21:40:12.674Z,11.83
2017-10-25T21:42:40.923Z,6.43
2017-10-25T21:45:08.898Z,7.00
2017-10-25T21:47:38.510Z,5.40
2017-10-25T21:50:07.103Z,6.17
2017-10-25T21:52:35.962Z,6.00
2017-10-25T21:55:04.234Z,8.73
2017-10-25T21:57:32.114Z,24.07
2017-10-25T22:00:00.044Z,9.83
2017-10-25T22:02:28.012Z,5.07
2017-10-25T22:04:55.815Z,8.83
2017-10-25T22:07:24.403Z,5.13
2017-10-25T22:09:52.352Z,7.37
2017-10-25T22:12:20.713Z,4.53
2017-10-25T22:14:49.068Z,5.23
2017-10-25T22:17:17.965Z,30.63
2017-10-25T22:19:47.379Z,9.93
2017-10-25T22:22:15.704Z,60.13
2017-10-25T22:24:43.661Z,11.90
2017-10-25T22:27:11.732Z,6.83
2017-10-25T22:29:40.418Z,9.10
2017-10-25T22:32:08.700Z,5.40
2017-10-25T22:34:36.201Z,7.63
2017-10-25T22:37:04.458Z,12.37
2017-10-25T22:39:32.705Z,7.13
2017-10-25T22:42:00.195Z,5.13
2017-10-25T22:44:27.687Z,24.33
2017-10-25T22:46:55.937Z,13.23
2017-10-25T22:49:23.657Z,9.13
2017-10-25T22:51:52.133Z,33.97
2017-10-25T22:54:19.748Z,4.77
2017-10-25T22:56:47.995Z,4.60
2017-10-25T22:59:15.654Z,7.43
2017-10-25T23:01:43.201Z,4.83
2017-10-25T23:04:11.027Z,10.10
2017-10-25T23:06:39.450Z,5.50
2017-10-25T23:09:07.116Z,7.70
2017-10-25T23:11:34.765Z,4.47
2017-10-25T23:14:02.296Z,5.90
2017-10-25T23:16:30.533Z,4.27
2017-10-25T23:18:58.001Z,4.73
2017-10-25T23:21:25.581Z,4.87
2017-10-25T23:23:53.826Z,4.57
2017-10-25T23:26:23.214Z,3.93
2017-10-25T23:28:50.966Z,4.57
2017-10-25T23:31:18.481Z,5.37
2017-10-25T23:33:45.965Z,4.73
2017-10-25T23:36:14.206Z,5.13
2017-10-25T23:38:41.895Z,5.37
2017-10-25T23:41:10.142Z,4.90
2017-10-25T23:43:37.895Z,6.47
2017-10-25T23:46:05.424Z,6.00
2017-10-25T23:48:33.292Z,5.30
2017-10-25T23:51:00.857Z,5.97
2017-10-25T23:53:29.708Z,4.80
2017-10-25T23:55:57.947Z,5.50
2017-10-25T23:58:25.584Z,5.00
